createdAt,value
2023-03-21T00:00:58.219Z,10.27
2023-03-21T00:03:27.248Z,10.90
2023-03-21T00:05:55.431Z,10.30
2023-03-21T00:08:25.740Z,11.73
2023-03-21T00:10:58.633Z,12.60
2023-03-21T00:13:32.605Z,11.27
2023-03-21T00:16:19.195Z,10.73
2023-03-21T00:18:55.679Z,11.93
2023-03-21T00:24:17.766Z,12.10
2023-03-21T00:26:46.294Z,11.83
2023-03-21T00:29:15.613Z,11.17
2023-03-21T00:31:43.535Z,10.97
2023-03-21T00:36:44.488Z,11.37
2023-03-21T00:39:12.525Z,11.80
2023-03-21T00:41:43.137Z,11.83
2023-03-21T00:44:13.916Z,13.03
2023-03-21T00:46:51.650Z,11.57
2023-03-21T00:49:29.503Z,12.80
2023-03-21T00:51:59.532Z,12.10
2023-03-21T00:54:33.811Z,13.67
2023-03-21T00:57:01.745Z,14.13
2023-03-21T00:59:36.360Z,17.17
2023-03-21T01:02:07.400Z,16.20
2023-03-21T01:04:35.718Z,18.03
2023-03-21T01:07:03.543Z,19.47
2023-03-21T01:09:32.695Z,18.17
2023-03-21T01:12:01.058Z,23.73
2023-03-21T01:14:33.122Z,18.50
2023-03-21T01:17:02.381Z,18.47
2023-03-21T01:19:50.316Z,17.20
2023-03-21T01:22:20.733Z,19.97
2023-03-21T01:25:05.731Z,20.60
2023-03-21T01:27:36.811Z,20.47
2023-03-21T01:30:11.279Z,20.10
2023-03-21T01:32:45.395Z,19.63
2023-03-21T01:35:14.891Z,19.57
2023-03-21T01:37:43.670Z,22.30
2023-03-21T01:40:18.782Z,19.43
2023-03-21T01:42:49.271Z,25.10
2023-03-21T01:45:56.070Z,22.93
2023-03-21T01:48:27.850Z,21.77
2023-03-21T01:51:02.293Z,21.43
2023-03-21T01:53:38.628Z,21.77
2023-03-21T01:56:22.843Z,20.90
2023-03-21T01:58:57.805Z,21.47
2023-03-21T02:05:04.011Z,20.30
2023-03-21T02:08:25.866Z,23.27
2023-03-21T02:11:27.167Z,19.83
2023-03-21T02:20:42.834Z,18.33
2023-03-21T02:23:53.226Z,21.00
2023-03-21T02:27:04.325Z,19.57
2023-03-21T02:30:45.587Z,18.83
2023-03-21T02:33:57.693Z,21.87
2023-03-21T02:36:42.941Z,20.17
2023-03-21T02:42:33.276Z,19.40
2023-03-21T02:46:24.221Z,20.57
2023-03-21T02:49:45.118Z,21.10
2023-03-21T02:56:04.122Z,22.17
2023-03-21T02:59:12.493Z,23.83
2023-03-21T03:05:02.865Z,19.97
2023-03-21T03:08:35.771Z,24.60
2023-03-21T03:15:35.485Z,21.17
2023-03-21T03:18:16.051Z,21.23
2023-03-21T03:20:59.794Z,23.63
2023-03-21T03:30:29.659Z,21.27
2023-03-21T03:33:20.454Z,20.23
2023-03-21T03:36:30.448Z,23.77
2023-03-21T03:42:25.241Z,21.30
2023-03-21T03:45:04.279Z,22.50
2023-03-21T03:47:57.063Z,19.07
2023-03-21T03:50:33.755Z,21.00
2023-03-21T03:53:18.073Z,24.13
2023-03-21T03:55:54.811Z,22.60
2023-03-21T04:17:34.294Z,25.90
2023-03-21T04:27:43.783Z,34.80
2023-03-21T04:33:28.467Z,45.33
2023-03-21T04:36:26.887Z,38.50
2023-03-21T04:42:45.419Z,51.30
2023-03-21T04:46:31.971Z,34.97
2023-03-21T04:53:35.046Z,44.93
2023-03-21T05:00:09.142Z,44.23
2023-03-21T05:03:08.245Z,54.73
2023-03-21T05:06:26.630Z,49.17
2023-03-21T05:15:49.817Z,39.60
2023-03-21T05:18:36.651Z,30.37
2023-03-21T05:21:52.330Z,32.23
2023-03-21T05:24:41.155Z,34.50
2023-03-21T05:27:49.607Z,36.07
2023-03-21T05:30:47.951Z,48.63
2023-03-21T05:33:15.942Z,59.23
2023-03-21T05:35:47.801Z,43.13
2023-03-21T05:38:21.342Z,42.87
2023-03-21T05:40:52.105Z,46.87
2023-03-21T05:43:20.051Z,55.13
2023-03-21T05:45:48.408Z,50.50
2023-03-21T05:48:16.524Z,47.50
2023-03-21T05:50:44.460Z,54.33
2023-03-21T05:53:12.476Z,61.13
2023-03-21T05:55:44.909Z,57.67
2023-03-21T05:58:16.707Z,42.27
2023-03-21T06:00:49.476Z,44.33
2023-03-21T06:03:30.912Z,49.37
2023-03-21T06:06:11.707Z,46.80
2023-03-21T06:11:49.499Z,42.40
2023-03-21T06:14:26.364Z,37.77
2023-03-21T06:17:02.623Z,35.50
2023-03-21T06:19:34.863Z,36.97
2023-03-21T06:22:03.391Z,30.67
2023-03-21T06:24:46.302Z,29.03
2023-03-21T06:27:32.622Z,38.43
2023-03-21T06:30:14.654Z,33.07
2023-03-21T06:32:55.891Z,29.27
2023-03-21T06:35:36.938Z,28.10
2023-03-21T06:38:13.351Z,31.80
2023-03-21T06:40:47.116Z,33.63
2023-03-21T06:43:24.668Z,32.80
2023-03-21T06:46:09.669Z,41.30
2023-03-21T06:48:50.239Z,38.33
2023-03-21T06:51:22.912Z,37.93
2023-03-21T06:54:05.698Z,37.37
2023-03-21T06:57:02.822Z,37.20
2023-03-21T06:59:38.479Z,45.10
2023-03-21T07:02:16.598Z,37.23
2023-03-21T07:04:47.529Z,42.30
2023-03-21T07:07:21.575Z,40.50
2023-03-21T07:09:53.495Z,42.87
2023-03-21T07:12:23.317Z,32.67
2023-03-21T07:14:53.415Z,30.17
2023-03-21T07:17:21.615Z,37.83
2023-03-21T07:19:49.563Z,28.73
2023-03-21T07:22:18.679Z,25.77
2023-03-21T07:25:02.401Z,26.90
2023-03-21T07:27:34.914Z,27.90
2023-03-21T07:30:05.061Z,25.13
2023-03-21T07:32:35.592Z,26.67
2023-03-21T07:35:04.375Z,25.53
2023-03-21T07:37:43.430Z,30.20
2023-03-21T07:40:18.466Z,27.93
2023-03-21T07:42:47.131Z,21.53
2023-03-21T07:45:23.363Z,21.40
2023-03-21T07:47:52.137Z,20.00
2023-03-21T07:50:22.168Z,22.50
2023-03-21T07:52:50.522Z,19.07
2023-03-21T07:55:18.800Z,19.37
2023-03-21T07:57:47.204Z,23.23
2023-03-21T08:00:23.235Z,21.00
2023-03-21T08:02:58.856Z,22.00
2023-03-21T08:05:29.940Z,19.13
2023-03-21T08:07:58.616Z,20.60
2023-03-21T08:10:29.268Z,22.60
2023-03-21T08:12:57.467Z,22.73
2023-03-21T08:15:26.936Z,22.73
2023-03-21T08:17:54.853Z,25.80
2023-03-21T08:20:24.004Z,28.60
2023-03-21T08:22:52.309Z,27.00
2023-03-21T08:25:22.313Z,26.60
2023-03-21T08:27:51.552Z,24.30
2023-03-21T08:30:22.556Z,22.27
2023-03-21T08:32:52.424Z,28.67
2023-03-21T08:35:21.571Z,22.83
2023-03-21T08:37:53.346Z,19.60
2023-03-21T08:40:21.693Z,23.23
2023-03-21T08:42:49.683Z,28.13
2023-03-21T08:45:19.255Z,18.07
2023-03-21T08:47:47.460Z,18.70
2023-03-21T08:50:19.371Z,20.70
2023-03-21T08:52:47.274Z,18.30
2023-03-21T08:55:17.069Z,18.40
2023-03-21T08:57:45.862Z,25.50
2023-03-21T09:00:17.335Z,25.83
2023-03-21T09:02:46.813Z,20.47
2023-03-21T09:05:16.974Z,20.13
2023-03-21T09:07:45.445Z,21.10
2023-03-21T09:10:21.105Z,21.87
2023-03-21T09:12:50.606Z,17.70
2023-03-21T09:15:21.746Z,16.93
2023-03-21T09:17:52.773Z,16.20
2023-03-21T09:20:26.308Z,17.87
2023-03-21T09:22:55.309Z,16.53
2023-03-21T09:25:23.832Z,16.97
2023-03-21T09:27:52.450Z,23.57
2023-03-21T09:30:24.194Z,25.43
2023-03-21T09:32:55.600Z,18.40
2023-03-21T09:35:27.127Z,16.60
2023-03-21T09:37:59.003Z,23.87
2023-03-21T09:40:41.513Z,25.33
2023-03-21T09:43:23.463Z,19.87
2023-03-21T09:45:58.758Z,25.37
2023-03-21T09:48:54.359Z,18.87
2023-03-21T09:51:29.409Z,26.37
2023-03-21T09:54:01.030Z,26.47
2023-03-21T09:56:29.329Z,25.07
2023-03-21T09:59:01.424Z,19.27
2023-03-21T10:01:35.292Z,18.80
2023-03-21T10:04:06.668Z,24.67
2023-03-21T10:06:41.183Z,20.23
2023-03-21T10:09:15.477Z,17.43
2023-03-21T10:11:46.201Z,25.70
2023-03-21T10:14:19.594Z,24.43
2023-03-21T10:16:51.060Z,26.03
2023-03-21T10:19:21.400Z,22.20
2023-03-21T10:22:02.409Z,22.92
2023-03-21T10:24:34.323Z,19.38
2023-03-21T10:27:03.812Z,23.27
2023-03-21T10:29:37.786Z,18.63
2023-03-21T10:32:10.366Z,19.33
2023-03-21T10:34:42.664Z,22.02
2023-03-21T10:37:13.957Z,20.77
2023-03-21T10:39:43.250Z,17.02
2023-03-21T10:42:19.962Z,23.10
2023-03-21T10:44:49.846Z,19.83
2023-03-21T10:47:23.303Z,17.95
2023-03-21T10:50:10.357Z,18.45
2023-03-21T10:52:46.956Z,14.48
2023-03-21T10:55:28.794Z,18.58
2023-03-21T10:58:00.490Z,17.00
2023-03-21T11:00:31.450Z,16.75
2023-03-21T11:02:59.918Z,16.13
2023-03-21T11:05:35.203Z,16.80
2023-03-21T11:08:08.007Z,14.43
2023-03-21T11:10:52.306Z,16.10
2023-03-21T11:13:26.239Z,16.45
2023-03-21T11:15:56.507Z,15.15
2023-03-21T11:18:27.618Z,13.02
2023-03-21T11:20:58.036Z,11.95
2023-03-21T11:23:30.812Z,9.05
2023-03-21T11:26:01.225Z,9.65
2023-03-21T11:28:37.532Z,10.75
2023-03-21T11:31:09.210Z,11.27
2023-03-21T11:33:40.338Z,13.35
2023-03-21T11:36:26.218Z,8.57
2023-03-21T11:38:58.589Z,8.70
2023-03-21T11:41:30.478Z,10.13
2023-03-21T11:43:59.448Z,14.23
2023-03-21T11:46:29.202Z,15.82
2023-03-21T11:48:58.552Z,13.05
2023-03-21T11:51:34.819Z,9.07
2023-03-21T11:54:13.473Z,9.07
2023-03-21T11:56:45.399Z,9.38
2023-03-21T11:59:37.309Z,8.75
2023-03-21T12:02:23.267Z,12.10
2023-03-21T12:04:56.057Z,7.68
2023-03-21T12:07:37.729Z,7.65
2023-03-21T12:10:38.155Z,7.80
2023-03-21T12:13:19.160Z,10.95
2023-03-21T12:15:56.440Z,13.57
2023-03-21T12:19:00.396Z,8.52
2023-03-21T12:21:34.960Z,11.27
2023-03-21T12:24:08.862Z,8.75
2023-03-21T12:26:45.004Z,7.82
2023-03-21T12:29:37.602Z,7.88
2023-03-21T12:32:19.288Z,7.35
2023-03-21T12:35:02.924Z,9.38
2023-03-21T12:37:38.260Z,8.23
2023-03-21T12:40:16.149Z,8.90
2023-03-21T12:43:08.527Z,15.20
2023-03-21T12:45:47.067Z,6.55
2023-03-21T12:48:24.655Z,7.97
2023-03-21T12:50:55.894Z,6.75
2023-03-21T12:53:36.177Z,6.57
2023-03-21T12:56:09.305Z,7.95
2023-03-21T12:58:47.050Z,7.30
2023-03-21T13:01:19.226Z,6.72
2023-03-21T13:03:54.317Z,8.50
2023-03-21T13:06:26.956Z,7.72
2023-03-21T13:08:59.404Z,11.18
2023-03-21T13:11:31.492Z,7.43
2023-03-21T13:14:06.411Z,8.30
2023-03-21T13:16:38.692Z,7.43
2023-03-21T13:19:19.467Z,8.82
2023-03-21T13:21:55.927Z,10.23
2023-03-21T13:24:30.278Z,8.52
2023-03-21T13:27:06.732Z,8.57
2023-03-21T13:29:44.328Z,8.65
2023-03-21T13:32:21.895Z,9.57
2023-03-21T13:34:56.378Z,7.90
2023-03-21T13:37:27.745Z,9.98
2023-03-21T13:40:02.318Z,8.90
2023-03-21T13:42:34.407Z,9.60
2023-03-21T13:45:10.727Z,7.05
2023-03-21T13:47:54.414Z,7.38
2023-03-21T13:50:25.661Z,6.28
2023-03-21T13:53:21.621Z,7.30
2023-03-21T13:56:00.504Z,8.05
2023-03-21T13:58:37.983Z,8.32
2023-03-21T14:01:23.954Z,8.30
2023-03-21T14:03:59.595Z,10.45
2023-03-21T14:06:35.435Z,13.75
2023-03-21T14:09:04.244Z,14.57
2023-03-21T14:11:41.972Z,10.35
2023-03-21T14:14:12.339Z,9.07
2023-03-21T14:16:42.687Z,9.80
2023-03-21T14:19:12.992Z,8.63
2023-03-21T14:21:48.490Z,7.17
2023-03-21T14:24:17.642Z,11.23
2023-03-21T14:26:48.326Z,7.73
2023-03-21T14:29:25.989Z,10.13
2023-03-21T14:31:57.494Z,13.87
2023-03-21T14:34:27.644Z,8.07
2023-03-21T14:36:58.493Z,9.73
2023-03-21T14:39:30.867Z,9.53
2023-03-21T14:42:05.100Z,12.03
2023-03-21T14:44:53.460Z,9.60
2023-03-21T14:47:27.818Z,9.70
2023-03-21T14:49:57.078Z,10.80
2023-03-21T14:52:27.304Z,15.53
2023-03-21T14:54:56.730Z,14.67
2023-03-21T14:57:29.134Z,14.83
2023-03-21T15:00:02.307Z,11.67
2023-03-21T15:02:37.152Z,13.93
2023-03-21T15:05:15.750Z,11.23
2023-03-21T15:07:43.839Z,12.30
2023-03-21T15:10:19.145Z,19.60
2023-03-21T15:12:54.943Z,9.40
2023-03-21T15:15:36.651Z,9.10
2023-03-21T15:18:07.990Z,7.67
2023-03-21T15:20:39.221Z,8.33
2023-03-21T15:23:11.502Z,11.27
2023-03-21T15:25:40.263Z,11.70
2023-03-21T15:28:08.619Z,11.47
2023-03-21T15:30:36.591Z,9.47
2023-03-21T15:33:11.656Z,11.17
2023-03-21T15:35:42.575Z,12.37
2023-03-21T15:38:24.057Z,11.10
2023-03-21T15:40:52.240Z,10.37
2023-03-21T15:43:21.472Z,11.03
2023-03-21T15:45:50.937Z,14.57
2023-03-21T15:48:23.332Z,11.10
2023-03-21T15:50:58.834Z,18.47
2023-03-21T15:53:27.109Z,13.47
2023-03-21T15:56:02.000Z,10.77
2023-03-21T15:58:39.512Z,11.70
2023-03-21T16:01:12.762Z,9.90
2023-03-21T16:03:46.192Z,15.33
2023-03-21T16:06:19.914Z,13.90
2023-03-21T16:08:50.308Z,9.37
2023-03-21T16:11:24.600Z,9.63
2023-03-21T16:13:54.515Z,9.97
2023-03-21T16:16:26.138Z,15.63
2023-03-21T16:18:57.116Z,12.07
2023-03-21T16:21:28.593Z,11.77
2023-03-21T16:26:52.880Z,9.63
2023-03-21T16:29:21.337Z,10.23
2023-03-21T16:31:50.088Z,11.30
2023-03-21T16:34:19.470Z,12.60
2023-03-21T16:36:55.795Z,12.90
2023-03-21T16:39:27.754Z,13.37
2023-03-21T16:41:58.811Z,12.57
2023-03-21T16:44:40.393Z,12.60
2023-03-21T16:47:19.209Z,13.13
2023-03-21T16:49:56.631Z,13.63
2023-03-21T16:52:26.401Z,13.03
2023-03-21T16:55:01.544Z,15.63
2023-03-21T16:57:34.542Z,16.67
2023-03-21T17:00:08.285Z,17.23
2023-03-21T17:05:55.431Z,15.80
2023-03-21T17:08:56.695Z,19.07
2023-03-21T17:12:01.228Z,21.17
2023-03-21T17:14:54.068Z,20.37
2023-03-21T17:20:44.730Z,17.47
2023-03-21T17:23:51.084Z,20.03
2023-03-21T17:26:31.496Z,18.37
2023-03-21T17:29:07.035Z,14.33
2023-03-21T17:34:35.382Z,13.03
2023-03-21T17:37:28.107Z,13.73
2023-03-21T17:43:40.528Z,12.23
2023-03-21T17:46:16.462Z,13.07
2023-03-21T17:48:51.036Z,13.63
2023-03-21T17:51:33.168Z,14.70
2023-03-21T17:54:09.409Z,13.73
2023-03-21T17:56:55.284Z,13.90
2023-03-21T17:59:46.863Z,14.03
2023-03-21T18:02:22.455Z,14.40
2023-03-21T18:05:08.366Z,14.13
2023-03-21T18:08:09.882Z,15.93
2023-03-21T18:10:43.484Z,15.03
2023-03-21T18:13:29.045Z,15.10
2023-03-21T18:16:14.864Z,15.90
2023-03-21T18:18:57.586Z,17.83
2023-03-21T18:21:32.891Z,17.70
2023-03-21T18:24:10.522Z,17.77
2023-03-21T18:26:43.427Z,18.27
2023-03-21T18:32:23.882Z,21.93
2023-03-21T18:35:23.477Z,25.23
2023-03-21T18:38:05.980Z,26.90
2023-03-21T18:41:03.820Z,28.20
2023-03-21T18:44:05.323Z,30.43
2023-03-21T18:46:46.892Z,27.60
2023-03-21T18:54:57.661Z,29.47
2023-03-21T18:57:45.979Z,26.60
2023-03-21T19:03:34.743Z,23.57
2023-03-21T19:06:19.025Z,24.17
2023-03-21T19:08:52.865Z,22.07
2023-03-21T19:11:23.197Z,24.73
2023-03-21T19:13:53.198Z,21.30
2023-03-21T19:16:26.497Z,21.67
2023-03-21T19:18:58.078Z,22.67
2023-03-21T19:21:27.594Z,21.90
2023-03-21T19:26:47.184Z,21.20
2023-03-21T19:29:19.838Z,21.70
2023-03-21T19:31:49.612Z,22.30
2023-03-21T19:34:17.932Z,23.67
2023-03-21T19:36:51.452Z,23.07
2023-03-21T19:39:24.759Z,23.60
2023-03-21T19:42:14.696Z,23.70
2023-03-21T19:44:46.923Z,23.77
2023-03-21T19:47:16.658Z,26.63
2023-03-21T19:52:37.535Z,25.00
2023-03-21T19:55:07.015Z,26.20
2023-03-21T19:57:39.027Z,28.40
2023-03-21T20:00:13.896Z,27.27
2023-03-21T20:02:45.524Z,28.67
2023-03-21T20:05:15.592Z,29.60
2023-03-21T20:07:45.622Z,29.50
2023-03-21T20:10:13.649Z,30.77
2023-03-21T20:12:42.844Z,28.10
2023-03-21T20:15:20.905Z,26.43
2023-03-21T20:17:52.938Z,26.40
2023-03-21T20:20:23.951Z,28.43
2023-03-21T20:23:07.294Z,28.17
2023-03-21T20:25:44.186Z,27.90
2023-03-21T20:28:54.867Z,25.90
2023-03-21T20:31:31.652Z,27.53
2023-03-21T20:34:28.486Z,29.20
2023-03-21T20:37:08.500Z,29.23
2023-03-21T20:40:03.974Z,27.83
2023-03-21T20:42:37.281Z,29.73
2023-03-21T20:45:15.984Z,27.07
2023-03-21T20:47:48.648Z,29.90
2023-03-21T20:50:22.005Z,28.17
2023-03-21T20:53:05.917Z,28.90
2023-03-21T20:55:36.553Z,26.03
2023-03-21T20:58:26.797Z,29.23
2023-03-21T21:00:56.375Z,25.10
2023-03-21T21:03:24.793Z,23.93
2023-03-21T21:05:54.151Z,3.40
2023-03-21T21:08:22.009Z,2.90
2023-03-21T21:11:30.190Z,3.30
2023-03-21T21:13:39.300Z,3.30
2023-03-21T21:16:10.730Z,6.97
2023-03-21T21:18:38.659Z,3.57
2023-03-21T21:21:08.708Z,4.57
2023-03-21T21:23:38.371Z,3.97
2023-03-21T21:26:09.802Z,5.80
2023-03-21T21:28:38.448Z,3.57
2023-03-21T21:31:15.169Z,3.33
2023-03-21T21:33:46.684Z,4.33
2023-03-21T21:36:24.584Z,2.77
2023-03-21T21:38:59.380Z,3.30
2023-03-21T21:41:42.832Z,3.60
2023-03-21T21:44:18.838Z,2.73
2023-03-21T21:46:47.267Z,4.20
2023-03-21T21:49:15.285Z,4.23
2023-03-21T21:51:43.196Z,3.57
2023-03-21T21:54:18.067Z,2.20
2023-03-21T21:56:55.215Z,2.63
2023-03-21T21:59:26.035Z,3.70
2023-03-21T22:01:59.616Z,3.53
2023-03-21T22:04:31.858Z,1.93
2023-03-21T22:07:06.699Z,1.83
2023-03-21T22:09:34.643Z,1.00
2023-03-21T22:12:03.933Z,1.93
2023-03-21T22:14:31.796Z,1.37
2023-03-21T22:17:00.128Z,1.00
2023-03-21T22:19:28.432Z,1.47
2023-03-21T22:21:58.243Z,1.97
2023-03-21T22:24:26.354Z,1.10
2023-03-21T22:26:58.044Z,0.90
2023-03-21T22:29:32.117Z,0.87
2023-03-21T22:32:00.902Z,0.90
2023-03-21T22:34:31.245Z,1.17
2023-03-21T22:37:05.770Z,1.03
2023-03-21T22:39:34.664Z,0.80
2023-03-21T22:42:12.736Z,0.80
2023-03-21T22:44:45.762Z,0.83
2023-03-21T22:47:20.649Z,0.70
2023-03-21T22:49:49.128Z,1.30
2023-03-21T22:52:24.598Z,1.07
2023-03-21T22:54:53.017Z,0.80
2023-03-21T22:57:21.174Z,1.53
2023-03-21T22:59:50.443Z,0.80
2023-03-21T23:02:19.395Z,1.00
2023-03-21T23:04:47.243Z,0.77
2023-03-21T23:07:15.664Z,1.37
2023-03-21T23:09:43.801Z,0.80
2023-03-21T23:12:11.787Z,1.00
2023-03-21T23:14:39.650Z,1.00
2023-03-21T23:17:10.130Z,1.57
2023-03-21T23:19:40.867Z,0.63
2023-03-21T23:22:08.991Z,0.83
2023-03-21T23:24:36.842Z,0.90
2023-03-21T23:27:04.800Z,0.90
2023-03-21T23:29:32.651Z,1.70
2023-03-21T23:32:00.968Z,0.77
2023-03-21T23:34:30.365Z,1.30
2023-03-21T23:36:58.440Z,1.13
2023-03-21T23:39:26.496Z,1.10
2023-03-21T23:41:54.360Z,1.50
2023-03-21T23:44:22.213Z,1.23
2023-03-21T23:46:50.147Z,1.30
2023-03-21T23:49:18.225Z,0.87
2023-03-21T23:51:52.215Z,0.97
2023-03-21T23:54:20.089Z,1.60
2023-03-21T23:56:47.968Z,1.13
2023-03-21T23:59:26.496Z,1.60
